Time;durP1;ratioP1;P1;durP2;ratioP2;P2;SDS_P1;SDS_P2;PMS_P1;PMS_P2;Temp;Humidity;BMP_temperature;BMP_pressure;BME280_temperature;BME280_humidity;BME280_pressure;Samples;Min_cycle;Max_cycle;Signal;HPM_P1;HPM_P2
2022/08/17 00:00:59;;;;;;;;;;;24.60;91.00;;;;;;5053580;28;19924;-57
2022/08/17 00:03:24;;;;;;;;;;;24.70;91.20;;;;;;5053131;28;19951;-58
2022/08/17 00:05:52;;;;;;;;;;;24.60;91.40;;;;;;5052737;28;20323;-57
2022/08/17 00:08:20;;;;;;;;;;;24.60;91.60;;;;;;5052798;28;19909;-56
2022/08/17 00:10:46;;;;;;;;;;;24.50;91.90;;;;;;5053574;28;20268;-58
2022/08/17 00:13:15;;;;;;;;;;;24.50;92.10;;;;;;5053586;28;19913;-57
2022/08/17 00:15:40;;;;;;;;;;;24.50;92.30;;;;;;5053304;28;20004;-58
2022/08/17 00:18:06;;;;;;;;;;;24.40;92.60;;;;;;5053122;28;20440;-56
2022/08/17 00:20:31;;;;;;;;;;;24.40;92.70;;;;;;5038437;28;20067;-55
2022/08/17 00:23:10;;;;;;;;;;;24.30;92.80;;;;;;5037304;28;19917;-58
2022/08/17 00:25:36;;;;;;;;;;;24.30;92.50;;;;;;5052814;28;19908;-56
2022/08/17 00:28:02;;;;;;;;;;;24.30;91.20;;;;;;5052463;28;20372;-57
2022/08/17 00:30:28;;;;;;;;;;;24.20;90.90;;;;;;5052674;28;19920;-56
2022/08/17 00:32:54;;;;;;;;;;;24.20;90.60;;;;;;5052190;28;19920;-57
2022/08/17 00:35:22;;;;;;;;;;;23.90;91.20;;;;;;5052631;28;20268;-53
2022/08/17 00:37:51;;;;;;;;;;;23.60;90.60;;;;;;5050783;28;19958;-54
2022/08/17 00:40:16;;;;;;;;;;;23.20;90.50;;;;;;5053798;28;19924;-58
2022/08/17 00:42:44;;;;;;;;;;;22.90;92.20;;;;;;5052719;28;19913;-59
2022/08/17 00:45:11;;;;;;;;;;;23.00;92.60;;;;;;5054501;28;20003;-54
2022/08/17 00:47:36;;;;;;;;;;;23.10;92.30;;;;;;5052003;28;20384;-55
2022/08/17 00:50:05;;;;;;;;;;;23.00;92.20;;;;;;5052558;28;19920;-58
2022/08/17 00:52:34;;;;;;;;;;;23.20;92.10;;;;;;5052518;28;20343;-55
2022/08/17 00:55:00;;;;;;;;;;;23.30;91.80;;;;;;5052576;28;19920;-56
2022/08/17 00:57:31;;;;;;;;;;;23.30;91.50;;;;;;5051933;28;20410;-56
2022/08/17 01:00:00;;;;;;;;;;;23.40;91.30;;;;;;5052576;28;19917;-52
2022/08/17 01:02:26;;;;;;;;;;;23.40;91.30;;;;;;5054001;28;20567;-53
2022/08/17 01:04:52;;;;;;;;;;;23.50;91.40;;;;;;5052627;28;19928;-57
2022/08/17 01:07:20;;;;;;;;;;;23.60;92.00;;;;;;5052569;28;20513;-54
2022/08/17 01:09:47;;;;;;;;;;;23.60;92.40;;;;;;5052619;28;19939;-53
2022/08/17 01:12:12;;;;;;;;;;;23.70;92.80;;;;;;5051732;28;19951;-54
2022/08/17 01:14:38;;;;;;;;;;;23.70;92.90;;;;;;5052210;28;20321;-56
2022/08/17 01:17:05;;;;;;;;;;;23.70;92.90;;;;;;5051411;28;19995;-53
2022/08/17 01:19:33;;;;;;;;;;;23.70;93.00;;;;;;5051625;28;20482;-54
2022/08/17 01:22:18;;;;;;;;;;;23.60;93.20;;;;;;5033648;28;19910;-54
2022/08/17 01:24:46;;;;;;;;;;;23.70;93.30;;;;;;5034865;28;19968;-56
2022/08/17 01:27:13;;;;;;;;;;;23.60;93.20;;;;;;5051472;28;20360;-52
2022/08/17 01:29:40;;;;;;;;;;;23.70;93.20;;;;;;5052286;28;19917;-52
2022/08/17 01:32:06;;;;;;;;;;;23.60;93.20;;;;;;5052103;28;19913;-50
2022/08/17 01:34:33;;;;;;;;;;;23.60;93.30;;;;;;5051976;28;19988;-50
2022/08/17 01:36:58;;;;;;;;;;;23.50;93.70;;;;;;5050856;28;20003;-52
2022/08/17 01:39:35;;;;;;;;;;;23.50;93.80;;;;;;5052154;28;19955;-53
2022/08/17 01:42:07;;;;;;;;;;;23.30;94.20;;;;;;5051604;28;20096;-53
2022/08/17 01:44:32;;;;;;;;;;;23.20;94.60;;;;;;5051484;28;19908;-50
2022/08/17 01:46:58;;;;;;;;;;;23.10;94.70;;;;;;5051082;28;20075;-52
2022/08/17 01:49:24;;;;;;;;;;;23.00;94.90;;;;;;5051837;28;19912;-52
2022/08/17 01:51:49;;;;;;;;;;;22.80;95.00;;;;;;5050741;28;19916;-50
2022/08/17 01:54:16;;;;;;;;;;;22.80;94.80;;;;;;5051952;28;19932;-54
2022/08/17 01:56:46;;;;;;;;;;;22.80;94.90;;;;;;5050677;28;19932;-54
2022/08/17 01:59:12;;;;;;;;;;;22.90;95.00;;;;;;5051677;28;20527;-54
2022/08/17 02:01:38;;;;;;;;;;;23.00;94.80;;;;;;5051187;28;19998;-55
2022/08/17 02:04:05;;;;;;;;;;;23.20;94.50;;;;;;5051443;28;20373;-54
2022/08/17 02:06:35;;;;;;;;;;;23.20;94.20;;;;;;5050281;28;20334;-53
2022/08/17 02:09:00;;;;;;;;;;;23.30;94.00;;;;;;5051385;28;19930;-54
2022/08/17 02:11:26;;;;;;;;;;;23.30;93.90;;;;;;5051028;28;20016;-54
2022/08/17 02:13:52;;;;;;;;;;;23.20;94.00;;;;;;5052246;28;19909;-51
2022/08/17 02:16:18;;;;;;;;;;;23.20;94.40;;;;;;5050480;28;19920;-54
2022/08/17 02:18:45;;;;;;;;;;;23.20;94.70;;;;;;5050927;28;20293;-52
2022/08/17 02:21:11;;;;;;;;;;;23.20;94.80;;;;;;5050908;28;19916;-50
2022/08/17 02:23:37;;;;;;;;;;;23.20;94.90;;;;;;5050904;28;19909;-55
2022/08/17 02:26:03;;;;;;;;;;;23.10;95.10;;;;;;5051125;28;19917;-57
2022/08/17 02:28:29;;;;;;;;;;;23.10;95.30;;;;;;5051138;28;19948;-55
2022/08/17 02:30:56;;;;;;;;;;;23.10;95.40;;;;;;5050962;28;19952;-58
2022/08/17 02:33:21;;;;;;;;;;;23.00;95.40;;;;;;5051101;28;20360;-56
2022/08/17 02:35:47;;;;;;;;;;;22.90;95.50;;;;;;5050734;28;19923;-52
2022/08/17 02:38:13;;;;;;;;;;;22.80;95.70;;;;;;5050627;28;20015;-53
2022/08/17 02:40:39;;;;;;;;;;;22.80;95.70;;;;;;5054239;28;19909;-54
2022/08/17 02:43:05;;;;;;;;;;;22.70;95.20;;;;;;5054382;28;19917;-53
2022/08/17 02:45:31;;;;;;;;;;;22.50;95.80;;;;;;5054717;28;19909;-50
2022/08/17 02:47:56;;;;;;;;;;;22.50;95.50;;;;;;5055399;28;19932;-55
2022/08/17 02:50:22;;;;;;;;;;;22.40;96.10;;;;;;5054587;28;19909;-55
2022/08/17 02:52:49;;;;;;;;;;;22.30;96.20;;;;;;5054213;28;20521;-55
2022/08/17 02:55:20;;;;;;;;;;;22.30;95.80;;;;;;5054232;28;19921;-52
2022/08/17 02:57:46;;;;;;;;;;;22.30;96.10;;;;;;5053958;28;19923;-54
2022/08/17 03:00:17;;;;;;;;;;;22.30;96.40;;;;;;5054686;28;19909;-52
2022/08/17 03:02:44;;;;;;;;;;;22.30;96.40;;;;;;5054789;28;19999;-57
2022/08/17 03:05:11;;;;;;;;;;;22.30;96.60;;;;;;5054135;28;19913;-56
2022/08/17 03:07:37;;;;;;;;;;;22.30;96.90;;;;;;5054703;28;19917;-56
2022/08/17 03:10:03;;;;;;;;;;;22.30;97.40;;;;;;5054280;28;19917;-56
2022/08/17 03:12:31;;;;;;;;;;;22.30;97.70;;;;;;5053994;28;19917;-55
2022/08/17 03:14:57;;;;;;;;;;;22.10;97.60;;;;;;5054198;28;19917;-57
2022/08/17 03:17:22;;;;;;;;;;;21.80;98.00;;;;;;5053279;28;20317;-53
2022/08/17 03:19:48;;;;;;;;;;;21.60;98.70;;;;;;5045234;28;19956;-52
2022/08/17 03:22:13;;;;;;;;;;;21.60;98.70;;;;;;5034058;28;19909;-54
2022/08/17 03:24:39;;;;;;;;;;;21.70;98.60;;;;;;5047690;28;19919;-53
2022/08/17 03:27:04;;;;;;;;;;;21.80;98.30;;;;;;5053491;28;20387;-51
2022/08/17 03:29:30;;;;;;;;;;;21.80;97.90;;;;;;5054020;28;19917;-54
2022/08/17 03:31:55;;;;;;;;;;;21.80;97.20;;;;;;5053547;28;19924;-54
2022/08/17 03:34:21;;;;;;;;;;;21.70;98.20;;;;;;5055322;28;19916;-55
2022/08/17 03:36:46;;;;;;;;;;;21.70;98.10;;;;;;5056251;28;19932;-56
2022/08/17 03:39:12;;;;;;;;;;;21.70;97.80;;;;;;5055284;28;19913;-57
2022/08/17 03:41:37;;;;;;;;;;;21.60;97.80;;;;;;5055580;28;20264;-55
2022/08/17 03:44:03;;;;;;;;;;;21.60;97.80;;;;;;5054956;28;19956;-55
2022/08/17 03:57:26;;;;;;;;;;;21.70;97.30;;;;;;5053125;28;19912;-55
2022/08/17 03:59:52;;;;;;;;;;;21.80;97.20;;;;;;5053567;28;19917;-56
2022/08/17 04:02:20;;;;;;;;;;;21.80;96.90;;;;;;5053793;28;19955;-56
2022/08/17 04:04:49;;;;;;;;;;;21.90;96.80;;;;;;5053059;28;19955;-55
2022/08/17 04:07:15;;;;;;;;;;;21.80;97.20;;;;;;5052992;28;19909;-56
2022/08/17 04:09:41;;;;;;;;;;;21.80;97.70;;;;;;5053064;28;19913;-57
2022/08/17 04:12:07;;;;;;;;;;;21.70;97.30;;;;;;5053893;28;20303;-57
2022/08/17 04:14:35;;;;;;;;;;;21.60;97.40;;;;;;5052761;28;20392;-58
2022/08/17 04:17:01;;;;;;;;;;;21.60;97.80;;;;;;5052969;28;19917;-56
2022/08/17 04:19:26;;;;;;;;;;;21.70;97.90;;;;;;5052994;28;19923;-52
2022/08/17 04:21:52;;;;;;;;;;;21.60;97.60;;;;;;5052977;28;19919;-52
2022/08/17 04:24:17;;;;;;;;;;;21.70;96.50;;;;;;5052974;28;19925;-56
2022/08/17 04:26:43;;;;;;;;;;;21.50;97.10;;;;;;5052594;28;19916;-52
2022/08/17 04:29:08;;;;;;;;;;;21.50;97.40;;;;;;5052736;28;20524;-56
2022/08/17 04:31:34;;;;;;;;;;;21.50;97.60;;;;;;5053810;28;19913;-55
2022/08/17 04:33:59;;;;;;;;;;;21.70;97.60;;;;;;5053591;28;19956;-56
2022/08/17 04:36:25;;;;;;;;;;;21.80;97.40;;;;;;5031461;28;20072;-54
2022/08/17 04:38:51;;;;;;;;;;;21.90;97.20;;;;;;5053068;28;20011;-56
2022/08/17 04:44:03;;;;;;;;;;;21.90;97.10;;;;;;5053960;28;20050;-53
2022/08/17 04:46:31;;;;;;;;;;;22.00;97.10;;;;;;5053157;28;19958;-57
2022/08/17 04:48:57;;;;;;;;;;;22.00;96.70;;;;;;5053829;28;19912;-56
2022/08/17 04:51:31;;;;;;;;;;;22.00;96.90;;;;;;5053045;28;20265;-56
2022/08/17 04:54:01;;;;;;;;;;;22.00;97.20;;;;;;5053661;28;19932;-56
2022/08/17 04:56:27;;;;;;;;;;;22.10;97.20;;;;;;5052825;28;19925;-54
2022/08/17 04:58:55;;;;;;;;;;;22.20;97.00;;;;;;5053049;28;19913;-56
2022/08/17 05:01:21;;;;;;;;;;;22.10;96.90;;;;;;5052226;28;19944;-54
2022/08/17 05:03:47;;;;;;;;;;;22.20;97.00;;;;;;5051248;28;19917;-57
2022/08/17 05:06:12;;;;;;;;;;;22.20;96.90;;;;;;5051164;28;19924;-58
2022/08/17 05:08:38;;;;;;;;;;;22.30;96.90;;;;;;5051881;28;20007;-54
2022/08/17 05:11:04;;;;;;;;;;;22.30;96.70;;;;;;5051888;28;19913;-53
2022/08/17 05:13:29;;;;;;;;;;;22.30;96.70;;;;;;5052182;28;20345;-52
2022/08/17 05:15:56;;;;;;;;;;;22.40;96.70;;;;;;5051638;28;19999;-52
2022/08/17 05:18:22;;;;;;;;;;;22.40;96.80;;;;;;5051298;28;19974;-55
2022/08/17 05:20:47;;;;;;;;;;;22.50;96.70;;;;;;5051679;28;19909;-59
2022/08/17 05:23:14;;;;;;;;;;;22.50;96.60;;;;;;5052042;28;19939;-56
2022/08/17 05:25:42;;;;;;;;;;;22.40;96.40;;;;;;5051932;28;20276;-53
2022/08/17 05:28:08;;;;;;;;;;;22.30;96.30;;;;;;5051667;28;19913;-55
2022/08/17 05:30:34;;;;;;;;;;;22.20;96.30;;;;;;5052218;28;19955;-58
2022/08/17 05:32:59;;;;;;;;;;;22.00;96.90;;;;;;5051866;28;19916;-56
2022/08/17 05:35:26;;;;;;;;;;;22.00;96.90;;;;;;5051853;28;20342;-57
2022/08/17 05:37:52;;;;;;;;;;;22.00;97.30;;;;;;5051313;28;19924;-57
2022/08/17 05:40:19;;;;;;;;;;;22.00;97.30;;;;;;5052075;28;19987;-57
2022/08/17 05:42:45;;;;;;;;;;;22.00;96.60;;;;;;5050539;28;19916;-56
2022/08/17 05:45:11;;;;;;;;;;;22.00;96.60;;;;;;5050338;28;19924;-55
2022/08/17 05:47:37;;;;;;;;;;;22.10;96.60;;;;;;5051561;28;19936;-55
2022/08/17 05:50:03;;;;;;;;;;;22.10;97.00;;;;;;5051981;28;20391;-56
2022/08/17 05:52:34;;;;;;;;;;;22.30;96.70;;;;;;5051198;28;19971;-55
2022/08/17 05:55:05;;;;;;;;;;;22.40;96.40;;;;;;5051493;28;19916;-56
2022/08/17 05:57:31;;;;;;;;;;;22.40;96.20;;;;;;5050190;28;19960;-54
2022/08/17 06:00:06;;;;;;;;;;;22.40;96.50;;;;;;5051288;28;20394;-55
2022/08/17 06:02:50;;;;;;;;;;;22.40;96.30;;;;;;5050970;28;19942;-54
2022/08/17 06:05:28;;;;;;;;;;;22.50;96.20;;;;;;5051525;28;20000;-57
2022/08/17 06:08:01;;;;;;;;;;;22.50;96.30;;;;;;5052050;28;19912;-53
2022/08/17 06:10:33;;;;;;;;;;;22.60;96.20;;;;;;5052233;28;19917;-55
2022/08/17 06:13:04;;;;;;;;;;;22.60;96.10;;;;;;5053016;28;19925;-53
2022/08/17 06:15:38;;;;;;;;;;;22.50;96.40;;;;;;5053824;28;20422;-52
2022/08/17 06:18:06;;;;;;;;;;;22.60;96.60;;;;;;5055305;28;19959;-55
2022/08/17 06:20:37;;;;;;;;;;;22.70;96.40;;;;;;5040745;28;19956;-52
2022/08/17 06:23:06;;;;;;;;;;;22.80;96.30;;;;;;5035306;28;19916;-50
2022/08/17 06:25:33;;;;;;;;;;;22.90;96.10;;;;;;5053787;28;20470;-52
2022/08/17 06:28:08;;;;;;;;;;;23.10;95.60;;;;;;5054786;28;20284;-48
2022/08/17 06:30:40;;;;;;;;;;;23.30;95.10;;;;;;5054676;28;19919;-56
2022/08/17 06:33:11;;;;;;;;;;;23.30;95.10;;;;;;5055401;28;19909;-58
2022/08/17 06:35:39;;;;;;;;;;;23.40;95.00;;;;;;5055108;28;20345;-58
2022/08/17 06:38:13;;;;;;;;;;;23.50;94.70;;;;;;5054749;28;19956;-56
2022/08/17 06:41:14;;;;;;;;;;;23.60;94.50;;;;;;5054742;28;20276;-54
2022/08/17 06:43:39;;;;;;;;;;;23.70;94.20;;;;;;5051326;28;20014;-53
2022/08/17 06:46:07;;;;;;;;;;;23.80;93.90;;;;;;5053807;28;19913;-56
2022/08/17 06:48:41;;;;;;;;;;;23.80;93.80;;;;;;5052923;28;19924;-59
2022/08/17 06:51:16;;;;;;;;;;;23.90;93.70;;;;;;5053933;28;19928;-57
2022/08/17 06:53:44;;;;;;;;;;;24.00;93.50;;;;;;5053477;28;19921;-54
2022/08/17 06:56:12;;;;;;;;;;;24.10;93.30;;;;;;5050448;28;19913;-57
2022/08/17 06:58:39;;;;;;;;;;;24.10;93.40;;;;;;5053450;28;19920;-54
2022/08/17 07:01:08;;;;;;;;;;;24.20;93.10;;;;;;5053548;28;20288;-54
2022/08/17 07:03:37;;;;;;;;;;;24.20;93.10;;;;;;5053630;28;19909;-56
2022/08/17 07:06:09;;;;;;;;;;;24.30;92.80;;;;;;5054295;28;19917;-54
2022/08/17 07:08:36;;;;;;;;;;;24.50;92.60;;;;;;5053877;28;19913;-56
2022/08/17 07:11:28;;;;;;;;;;;24.50;92.40;;;;;;5053764;28;19999;-56
2022/08/17 07:13:54;;;;;;;;;;;24.50;92.50;;;;;;5050662;28;19935;-57
2022/08/17 07:16:30;;;;;;;;;;;24.60;92.30;;;;;;5052789;28;20384;-58
2022/08/17 07:18:57;;;;;;;;;;;24.60;92.00;;;;;;5053590;28;19913;-60
2022/08/17 07:21:31;;;;;;;;;;;24.60;91.90;;;;;;5054113;28;19967;-56
2022/08/17 07:24:02;;;;;;;;;;;24.70;91.90;;;;;;5053958;28;19960;-56
2022/08/17 07:26:28;;;;;;;;;;;24.80;91.60;;;;;;5050804;28;19920;-53
2022/08/17 07:28:56;;;;;;;;;;;25.00;91.30;;;;;;5053028;28;19944;-53
2022/08/17 07:31:24;;;;;;;;;;;25.10;91.10;;;;;;5053442;28;20380;-58
2022/08/17 07:34:18;;;;;;;;;;;25.10;91.20;;;;;;5052589;28;20007;-57
2022/08/17 07:36:44;;;;;;;;;;;25.20;91.20;;;;;;5042445;28;19987;-55
2022/08/17 07:39:10;;;;;;;;;;;25.20;91.30;;;;;;5053668;28;20562;-56
2022/08/17 07:41:40;;;;;;;;;;;25.40;91.30;;;;;;5055288;28;19959;-57
2022/08/17 07:44:14;;;;;;;;;;;25.40;91.60;;;;;;5054896;28;19912;-55
2022/08/17 07:49:33;;;;;;;;;;;25.50;91.00;;;;;;5053291;28;19909;-54
2022/08/17 07:52:01;;;;;;;;;;;25.50;90.70;;;;;;5053247;28;20005;-56
2022/08/17 07:54:29;;;;;;;;;;;25.50;90.50;;;;;;5053241;28;19960;-53
2022/08/17 07:56:55;;;;;;;;;;;25.50;90.40;;;;;;5052767;28;19982;-56
2022/08/17 07:59:23;;;;;;;;;;;25.60;90.60;;;;;;5053106;28;20402;-58
2022/08/17 08:02:02;;;;;;;;;;;25.80;90.40;;;;;;5052749;28;19923;-56
2022/08/17 08:04:36;;;;;;;;;;;25.90;90.20;;;;;;5052867;28;19956;-58
2022/08/17 08:07:04;;;;;;;;;;;26.00;90.00;;;;;;5052077;28;19979;-58
2022/08/17 08:09:32;;;;;;;;;;;26.10;89.70;;;;;;5052819;28;19978;-55
2022/08/17 08:11:59;;;;;;;;;;;26.00;89.90;;;;;;5052661;28;19909;-54
2022/08/17 08:14:29;;;;;;;;;;;26.10;90.10;;;;;;5052645;28;19919;-52
2022/08/17 08:16:59;;;;;;;;;;;26.30;90.00;;;;;;5051976;28;19913;-54
2022/08/17 08:19:25;;;;;;;;;;;26.50;90.20;;;;;;5052641;28;20442;-54
2022/08/17 08:21:58;;;;;;;;;;;26.60;90.20;;;;;;5052602;28;19954;-58
2022/08/17 08:24:42;;;;;;;;;;;26.60;89.60;;;;;;5052597;28;20506;-54
2022/08/17 08:27:20;;;;;;;;;;;26.80;88.20;;;;;;5051987;28;19908;-56
2022/08/17 08:29:51;;;;;;;;;;;26.80;87.80;;;;;;5052718;28;20292;-58
2022/08/17 08:32:32;;;;;;;;;;;26.90;87.10;;;;;;5051271;28;19913;-54
2022/08/17 08:35:08;;;;;;;;;;;26.90;86.50;;;;;;5052460;28;19909;-59
2022/08/17 08:37:49;;;;;;;;;;;27.00;86.90;;;;;;5051704;28;20312;-58
2022/08/17 08:40:26;;;;;;;;;;;27.10;85.20;;;;;;5052056;28;19908;-56
2022/08/17 08:42:58;;;;;;;;;;;27.20;84.50;;;;;;5052018;28;19928;-60
2022/08/17 08:45:31;;;;;;;;;;;27.20;83.40;;;;;;5035668;28;19932;-55
2022/08/17 08:48:13;;;;;;;;;;;27.30;83.00;;;;;;5031805;28;19979;-56
2022/08/17 08:50:46;;;;;;;;;;;27.40;82.90;;;;;;5032048;28;20041;-57
2022/08/17 08:53:30;;;;;;;;;;;27.50;82.00;;;;;;5047806;28;19919;-54
2022/08/17 08:56:03;;;;;;;;;;;27.70;81.20;;;;;;5048242;28;19978;-56
2022/08/17 08:58:28;;;;;;;;;;;27.80;80.70;;;;;;5051265;28;19913;-56
2022/08/17 09:00:56;;;;;;;;;;;27.90;80.30;;;;;;5051194;28;19931;-53
2022/08/17 09:03:30;;;;;;;;;;;28.00;79.00;;;;;;5051492;28;19928;-54
2022/08/17 09:05:56;;;;;;;;;;;28.10;79.20;;;;;;5051520;28;19912;-58
2022/08/17 09:08:40;;;;;;;;;;;28.10;79.10;;;;;;5050321;28;19909;-54
2022/08/17 09:11:09;;;;;;;;;;;28.20;79.20;;;;;;5051557;28;20354;-56
2022/08/17 09:13:52;;;;;;;;;;;28.40;78.50;;;;;;5051311;28;19916;-56
2022/08/17 09:16:28;;;;;;;;;;;28.40;78.00;;;;;;5050727;28;19909;-56
2022/08/17 09:18:57;;;;;;;;;;;28.60;76.70;;;;;;5051593;28;19915;-55
2022/08/17 09:21:29;;;;;;;;;;;28.70;76.10;;;;;;5051124;28;19909;-56
2022/08/17 09:24:03;;;;;;;;;;;28.70;75.80;;;;;;5052650;28;19920;-55
2022/08/17 09:26:36;;;;;;;;;;;28.80;75.60;;;;;;5051348;28;19915;-56
2022/08/17 09:29:05;;;;;;;;;;;28.80;75.20;;;;;;5052363;28;19916;-55
2022/08/17 09:31:37;;;;;;;;;;;28.90;75.40;;;;;;5051901;28;19909;-55
2022/08/17 09:34:11;;;;;;;;;;;28.90;74.20;;;;;;5050819;28;19939;-57
2022/08/17 09:36:47;;;;;;;;;;;29.00;74.00;;;;;;5051036;28;19974;-53
2022/08/17 09:39:18;;;;;;;;;;;29.10;72.90;;;;;;5052677;28;19923;-54
2022/08/17 09:42:02;;;;;;;;;;;29.20;72.40;;;;;;5051819;28;19916;-57
2022/08/17 09:44:28;;;;;;;;;;;29.30;72.70;;;;;;5043646;28;19909;-52
2022/08/17 09:47:14;;;;;;;;;;;29.50;72.30;;;;;;5047769;28;19935;-62
2022/08/17 09:49:44;;;;;;;;;;;29.50;72.10;;;;;;5050546;28;19939;-57
2022/08/17 09:52:18;;;;;;;;;;;29.50;69.90;;;;;;5051752;28;19952;-55
2022/08/17 09:54:44;;;;;;;;;;;29.50;70.30;;;;;;5051117;28;20000;-56
2022/08/17 09:57:21;;;;;;;;;;;29.70;70.10;;;;;;5050439;28;20012;-56
2022/08/17 10:00:15;;;;;;;;;;;29.80;70.00;;;;;;5050989;28;19917;-55
2022/08/17 10:02:43;;;;;;;;;;;29.70;69.00;;;;;;5032296;28;19967;-56
2022/08/17 10:05:12;;;;;;;;;;;29.60;68.70;;;;;;5051248;28;19913;-52
2022/08/17 10:07:54;;;;;;;;;;;29.60;68.80;;;;;;5051060;28;20280;-54
2022/08/17 10:10:37;;;;;;;;;;;29.70;68.60;;;;;;5051016;28;19920;-58
2022/08/17 10:13:09;;;;;;;;;;;29.80;69.00;;;;;;5048957;28;19921;-53
2022/08/17 10:15:35;;;;;;;;;;;30.00;68.70;;;;;;5050592;28;20292;-58
2022/08/17 10:18:33;;;;;;;;;;;30.00;67.40;;;;;;5049782;28;20326;-57
2022/08/17 10:26:46;;;;;;;;;;;30.10;67.30;;;;;;5049256;28;19916;-55
2022/08/17 10:29:11;;;;;;;;;;;30.10;67.80;;;;;;5050705;28;19939;-56
2022/08/17 10:31:44;;;;;;;;;;;30.20;67.50;;;;;;5046206;28;19917;-59
2022/08/17 10:34:12;;;;;;;;;;;30.20;67.30;;;;;;5050707;28;19917;-57
2022/08/17 10:36:47;;;;;;;;;;;30.20;67.00;;;;;;5049934;28;19999;-57
2022/08/17 10:39:19;;;;;;;;;;;30.40;67.00;;;;;;5050296;28;19912;-52
2022/08/17 10:41:48;;;;;;;;;;;30.40;66.00;;;;;;5051131;28;19956;-53
2022/08/17 10:44:23;;;;;;;;;;;30.30;65.70;;;;;;5050355;28;19992;-57
2022/08/17 10:46:55;;;;;;;;;;;30.40;65.80;;;;;;5050528;28;19912;-54
2022/08/17 10:49:22;;;;;;;;;;;30.40;65.50;;;;;;5046521;28;19924;-55
2022/08/17 10:51:58;;;;;;;;;;;30.40;65.90;;;;;;5050642;28;19948;-51
2022/08/17 10:54:24;;;;;;;;;;;30.60;65.90;;;;;;5050543;28;19954;-57
2022/08/17 10:56:53;;;;;;;;;;;30.70;65.60;;;;;;5050178;28;19925;-52
2022/08/17 10:59:49;;;;;;;;;;;30.80;65.00;;;;;;5050608;28;19936;-52
2022/08/17 11:02:15;;;;;;;;;;;30.80;65.30;;;;;;5046765;28;19913;-54
2022/08/17 11:04:46;;;;;;;;;;;30.90;65.10;;;;;;5054325;28;19912;-56
2022/08/17 11:07:14;;;;;;;;;;;31.00;64.80;;;;;;5054217;28;19916;-53
2022/08/17 11:09:40;;;;;;;;;;;30.90;64.30;;;;;;5054188;28;19958;-58
2022/08/17 11:12:18;;;;;;;;;;;30.90;64.30;;;;;;5054447;28;20519;-54
2022/08/17 11:14:46;;;;;;;;;;;30.90;64.50;;;;;;5053964;28;19913;-50
2022/08/17 11:17:21;;;;;;;;;;;30.70;64.50;;;;;;5053438;28;19951;-54
2022/08/17 11:19:46;;;;;;;;;;;30.70;64.50;;;;;;5044528;28;20523;-55
2022/08/17 11:22:18;;;;;;;;;;;30.90;64.10;;;;;;5054206;28;19919;-55
2022/08/17 11:24:46;;;;;;;;;;;30.70;64.10;;;;;;5049664;28;19913;-53
2022/08/17 11:27:21;;;;;;;;;;;30.60;64.20;;;;;;5042084;28;19916;-55
2022/08/17 11:29:52;;;;;;;;;;;30.40;64.80;;;;;;5052762;28;19920;-52
2022/08/17 11:32:26;;;;;;;;;;;30.40;65.10;;;;;;5054018;28;19913;-56
2022/08/17 11:35:03;;;;;;;;;;;30.40;65.70;;;;;;5053901;28;19916;-55
2022/08/17 11:37:57;;;;;;;;;;;30.80;66.30;;;;;;5053966;28;20103;-55
2022/08/17 11:40:35;;;;;;;;;;;30.80;64.60;;;;;;5044659;28;19916;-56
2022/08/17 11:43:09;;;;;;;;;;;30.80;64.80;;;;;;5053358;28;19909;-56
2022/08/17 11:46:00;;;;;;;;;;;30.70;65.00;;;;;;5053431;28;19913;-58
2022/08/17 11:51:32;;;;;;;;;;;30.50;64.70;;;;;;5053572;28;19913;-57
2022/08/17 11:54:00;;;;;;;;;;;30.50;64.80;;;;;;5052365;28;19933;-54
2022/08/17 11:56:29;;;;;;;;;;;30.50;63.80;;;;;;5053433;28;19917;-60
2022/08/17 11:58:54;;;;;;;;;;;30.60;64.20;;;;;;5053803;28;19959;-57
2022/08/17 12:01:20;;;;;;;;;;;30.70;64.60;;;;;;5053517;28;19936;-59
2022/08/17 12:03:47;;;;;;;;;;;30.80;63.90;;;;;;5054116;28;19920;-56
2022/08/17 12:06:26;;;;;;;;;;;31.00;63.20;;;;;;5053284;28;19913;-59
2022/08/17 12:09:12;;;;;;;;;;;31.00;63.40;;;;;;5043245;28;19931;-57
2022/08/17 12:11:53;;;;;;;;;;;31.00;63.10;;;;;;5053397;28;19913;-60
2022/08/17 12:14:25;;;;;;;;;;;31.20;62.60;;;;;;5051806;28;19916;-57
2022/08/17 12:16:58;;;;;;;;;;;31.30;62.30;;;;;;5054205;28;20463;-54
2022/08/17 12:19:26;;;;;;;;;;;31.50;61.80;;;;;;5053398;28;19920;-60
2022/08/17 12:21:53;;;;;;;;;;;31.50;61.50;;;;;;5049862;28;19924;-60
2022/08/17 12:24:21;;;;;;;;;;;31.50;61.40;;;;;;5046594;28;19920;-59
2022/08/17 12:27:00;;;;;;;;;;;31.70;61.50;;;;;;5046711;28;20066;-57
2022/08/17 12:29:26;;;;;;;;;;;31.70;61.60;;;;;;5053831;28;19908;-59
2022/08/17 12:31:53;;;;;;;;;;;31.70;61.20;;;;;;5054076;28;20004;-58
2022/08/17 12:34:44;;;;;;;;;;;31.40;61.20;;;;;;5053651;28;19959;-59
2022/08/17 12:37:14;;;;;;;;;;;31.40;61.60;;;;;;5052700;28;20015;-59
2022/08/17 12:39:55;;;;;;;;;;;31.20;62.50;;;;;;5052893;28;19986;-60
2022/08/17 12:42:25;;;;;;;;;;;31.20;62.30;;;;;;5053233;28;20348;-61
2022/08/17 12:44:50;;;;;;;;;;;31.40;62.30;;;;;;5051445;28;19956;-59
2022/08/17 12:47:17;;;;;;;;;;;31.70;62.40;;;;;;5052557;28;19962;-59
2022/08/17 12:49:47;;;;;;;;;;;31.90;61.90;;;;;;5051384;28;19913;-56
2022/08/17 12:52:23;;;;;;;;;;;32.00;61.10;;;;;;5059546;28;19912;-59
2022/08/17 12:54:53;;;;;;;;;;;32.00;60.40;;;;;;5050245;28;19970;-59
2022/08/17 12:57:22;;;;;;;;;;;31.80;60.60;;;;;;5050877;28;19920;-59
2022/08/17 12:59:52;;;;;;;;;;;31.70;61.40;;;;;;5052709;28;20015;-58
2022/08/17 13:02:27;;;;;;;;;;;31.90;61.80;;;;;;5038040;28;19924;-58
2022/08/17 13:04:53;;;;;;;;;;;32.20;61.30;;;;;;5047381;28;20493;-60
2022/08/17 13:07:25;;;;;;;;;;;32.60;60.70;;;;;;5051672;28;19963;-60
2022/08/17 13:09:51;;;;;;;;;;;32.90;60.20;;;;;;5050978;28;20315;-60
2022/08/17 13:12:24;;;;;;;;;;;33.10;60.40;;;;;;5067478;28;19912;-62
2022/08/17 13:14:49;;;;;;;;;;;33.40;59.60;;;;;;5052927;28;20335;-60
2022/08/17 13:17:23;;;;;;;;;;;33.30;57.10;;;;;;5052037;28;19916;-59
2022/08/17 13:19:49;;;;;;;;;;;33.20;56.90;;;;;;5051146;28;20272;-59
2022/08/17 13:22:17;;;;;;;;;;;33.40;57.70;;;;;;5047990;28;19919;-60
2022/08/17 13:24:54;;;;;;;;;;;33.40;56.00;;;;;;5049958;28;19971;-61
2022/08/17 13:27:21;;;;;;;;;;;33.40;56.50;;;;;;5049348;28;19920;-58
2022/08/17 13:29:50;;;;;;;;;;;33.30;56.20;;;;;;5050451;28;20352;-58
2022/08/17 13:32:17;;;;;;;;;;;33.10;56.20;;;;;;5050976;28;20015;-58
2022/08/17 13:34:44;;;;;;;;;;;33.30;55.40;;;;;;5051257;28;20385;-61
2022/08/17 13:37:15;;;;;;;;;;;33.40;55.30;;;;;;5050778;28;20036;-58
2022/08/17 13:39:42;;;;;;;;;;;33.70;55.90;;;;;;5050111;28;19921;-60
2022/08/17 13:42:26;;;;;;;;;;;33.80;56.60;;;;;;5051263;28;19938;-59
2022/08/17 13:44:52;;;;;;;;;;;33.90;57.70;;;;;;5050420;28;19913;-57
2022/08/17 13:47:19;;;;;;;;;;;34.10;57.40;;;;;;5050435;28;19940;-60
2022/08/17 13:49:44;;;;;;;;;;;34.40;57.60;;;;;;5051843;28;19909;-61
2022/08/17 13:52:30;;;;;;;;;;;34.70;56.50;;;;;;5050900;28;20467;-59
2022/08/17 13:54:57;;;;;;;;;;;34.70;55.60;;;;;;5051595;28;19939;-59
2022/08/17 13:57:24;;;;;;;;;;;34.70;53.60;;;;;;5049668;28;20434;-60
2022/08/17 13:59:53;;;;;;;;;;;35.00;54.40;;;;;;5050998;28;20280;-60
2022/08/17 14:02:19;;;;;;;;;;;35.20;52.50;;;;;;5050571;28;19913;-59
2022/08/17 14:04:45;;;;;;;;;;;35.10;50.90;;;;;;5051551;28;19962;-56
2022/08/17 14:07:11;;;;;;;;;;;34.90;51.40;;;;;;5050581;28;19917;-56
2022/08/17 14:09:39;;;;;;;;;;;34.90;51.30;;;;;;5051271;28;20003;-60
2022/08/17 14:12:09;;;;;;;;;;;35.20;52.50;;;;;;5052066;28;19948;-60
2022/08/17 14:14:35;;;;;;;;;;;35.20;50.30;;;;;;5051834;28;19909;-61
2022/08/17 14:17:00;;;;;;;;;;;35.00;49.80;;;;;;5051239;28;20055;-60
2022/08/17 14:19:26;;;;;;;;;;;35.30;50.30;;;;;;5051674;28;19915;-60
2022/08/17 14:21:55;;;;;;;;;;;35.40;50.30;;;;;;5051525;28;19913;-55
2022/08/17 14:24:22;;;;;;;;;;;35.60;50.60;;;;;;5051898;28;19913;-61
2022/08/17 14:26:48;;;;;;;;;;;35.60;50.50;;;;;;5051195;28;19975;-59
2022/08/17 14:29:14;;;;;;;;;;;35.60;51.70;;;;;;5052247;28;19952;-58
2022/08/17 14:31:39;;;;;;;;;;;35.80;52.50;;;;;;5051627;28;20344;-62
2022/08/17 14:34:06;;;;;;;;;;;36.10;51.90;;;;;;5051759;28;20376;-61
2022/08/17 14:36:31;;;;;;;;;;;36.30;51.30;;;;;;5052448;28;20066;-60
2022/08/17 14:38:57;;;;;;;;;;;36.20;50.80;;;;;;5055761;28;19971;-61
2022/08/17 14:41:23;;;;;;;;;;;36.30;51.60;;;;;;5055553;28;19913;-59
2022/08/17 14:43:51;;;;;;;;;;;36.40;50.80;;;;;;5050725;28;19910;-60
2022/08/17 14:46:17;;;;;;;;;;;36.50;50.90;;;;;;5035026;28;19920;-60
2022/08/17 14:48:42;;;;;;;;;;;36.30;51.70;;;;;;5033977;28;19913;-59
2022/08/17 14:51:08;;;;;;;;;;;36.00;50.80;;;;;;5040297;28;19925;-59
2022/08/17 14:53:33;;;;;;;;;;;35.80;50.40;;;;;;5034640;28;20340;-61
2022/08/17 14:56:00;;;;;;;;;;;35.80;50.50;;;;;;5034620;28;19956;-59